Time;durP1;ratioP1;P1;durP2;ratioP2;P2;SDS_P1;SDS_P2;PMS_P1;PMS_P2;Temp;Humidity;BMP_temperature;BMP_pressure;BME280_temperature;BME280_humidity;BME280_pressure;Samples;Min_cycle;Max_cycle;Signal;HPM_P1;HPM_P2
2023/08/18 00:02:22;;;;;;;1999.90;999.90;;;23.20;99.90;;;;;;5095616;28;20085;-72
2023/08/18 00:04:48;;;;;;;1999.90;999.90;;;23.20;99.90;;;;;;5094234;28;20036;-72
2023/08/18 00:07:15;;;;;;;1999.90;999.90;;;23.20;99.90;;;;;;5080799;28;20031;-73
2023/08/18 00:09:43;;;;;;;1999.90;999.90;;;23.20;99.90;;;;;;5077753;28;20024;-72
2023/08/18 00:12:09;;;;;;;1999.90;999.90;;;23.20;99.90;;;;;;5087731;28;20036;-73
2023/08/18 00:14:35;;;;;;;1999.90;999.90;;;23.10;99.90;;;;;;5073981;28;20033;-72
2023/08/18 00:17:01;;;;;;;1999.90;999.90;;;23.00;99.90;;;;;;5075218;28;20032;-73
2023/08/18 00:19:26;;;;;;;1999.90;999.90;;;23.00;99.90;;;;;;5075678;28;20017;-73
2023/08/18 00:21:52;;;;;;;1999.90;999.90;;;22.90;99.90;;;;;;5073240;28;20029;-73
2023/08/18 00:24:18;;;;;;;1999.90;999.90;;;22.90;99.90;;;;;;5079936;28;20028;-73
2023/08/18 00:26:45;;;;;;;1999.90;999.90;;;22.90;99.90;;;;;;5095280;28;20036;-72
2023/08/18 00:29:11;;;;;;;1999.90;999.90;;;22.90;99.90;;;;;;5095188;28;20016;-72
2023/08/18 00:31:37;;;;;;;1999.90;999.90;;;22.90;99.90;;;;;;5094018;28;20123;-72
2023/08/18 00:34:03;;;;;;;1999.90;999.90;;;22.80;99.90;;;;;;5095328;28;20471;-72
2023/08/18 00:36:30;;;;;;;1999.90;999.90;;;22.80;99.90;;;;;;5093789;28;20439;-72
2023/08/18 00:38:56;;;;;;;1999.90;999.90;;;22.80;99.90;;;;;;5095063;28;20050;-72
2023/08/18 00:41:22;;;;;;;1999.90;999.90;;;22.80;99.90;;;;;;5095030;28;20067;-73
2023/08/18 00:43:47;;;;;;;1999.90;999.90;;;22.80;99.90;;;;;;5094390;28;20059;-72
2023/08/18 00:46:14;;;;;;;1999.90;999.90;;;22.80;99.90;;;;;;5094977;28;20036;-72
2023/08/18 00:48:41;;;;;;;1999.90;999.90;;;22.80;99.90;;;;;;5095337;28;20394;-73
2023/08/18 00:51:06;;;;;;;1999.90;999.90;;;22.80;99.90;;;;;;5095108;28;20028;-72
2023/08/18 00:53:33;;;;;;;1999.90;999.90;;;22.80;99.90;;;;;;5094931;28;20767;-72
2023/08/18 00:55:58;;;;;;;1999.90;999.90;;;22.80;99.90;;;;;;5094839;28;20028;-73
2023/08/18 00:58:24;;;;;;;1999.90;999.90;;;22.80;99.90;;;;;;5094945;28;20613;-72
2023/08/18 01:00:50;;;;;;;1999.90;999.90;;;22.70;99.90;;;;;;5093507;28;20507;-73
2023/08/18 01:03:16;;;;;;;1999.90;999.90;;;22.70;99.90;;;;;;5094766;28;20055;-73
2023/08/18 01:05:42;;;;;;;1999.90;999.90;;;22.70;99.90;;;;;;5092582;28;20101;-73
2023/08/18 01:08:08;;;;;;;1999.90;999.90;;;22.60;99.90;;;;;;5074347;28;20490;-72
2023/08/18 01:10:59;;;;;;;1999.90;999.90;;;22.70;99.90;;;;;;5082102;28;20391;-72
2023/08/18 01:13:41;;;;;;;1999.90;999.90;;;22.60;99.90;;;;;;5044101;28;20068;-73
2023/08/18 01:16:11;;;;;;;1999.90;999.90;;;22.50;99.90;;;;;;5054090;28;20487;-73
2023/08/18 01:18:38;;;;;;;1999.90;999.90;;;22.50;99.90;;;;;;5053920;28;20364;-72
2023/08/18 01:21:08;;;;;;;1999.90;999.90;;;22.50;99.90;;;;;;5054301;28;20018;-73
2023/08/18 01:23:40;;;;;;;1999.90;999.90;;;22.50;99.90;;;;;;5085240;28;20028;-72
2023/08/18 01:26:06;;;;;;;1999.90;999.90;;;22.40;99.90;;;;;;5079219;28;20034;-72
2023/08/18 01:28:33;;;;;;;1999.90;999.90;;;22.40;99.90;;;;;;5074056;28;20021;-73
2023/08/18 01:31:03;;;;;;;1999.90;999.90;;;22.40;99.90;;;;;;5072508;28;20119;-72
2023/08/18 01:33:43;;;;;;;1999.90;999.90;;;22.40;99.90;;;;;;5072685;28;20044;-73
2023/08/18 01:36:13;;;;;;;1999.90;999.90;;;22.30;99.90;;;;;;5073626;28;20544;-73
2023/08/18 01:38:40;;;;;;;1999.90;999.90;;;22.30;99.90;;;;;;5073612;28;20532;-72
2023/08/18 01:41:06;;;;;;;1999.90;999.90;;;22.20;99.90;;;;;;5073371;28;20024;-72
2023/08/18 01:43:32;;;;;;;1999.90;999.90;;;22.20;99.90;;;;;;5073529;28;20013;-73
2023/08/18 01:45:59;;;;;;;1999.90;999.90;;;22.20;99.90;;;;;;5073456;28;20128;-72
2023/08/18 01:48:25;;;;;;;1999.90;999.90;;;22.20;99.90;;;;;;5073750;28;20025;-72
2023/08/18 01:50:50;;;;;;;1999.90;999.90;;;22.10;99.90;;;;;;5073962;28;20089;-72
2023/08/18 01:53:16;;;;;;;1999.90;999.90;;;22.10;99.90;;;;;;5073455;28;20495;-72
2023/08/18 01:55:43;;;;;;;1999.90;999.90;;;22.00;99.90;;;;;;5073423;28;20029;-72
2023/08/18 01:58:08;;;;;;;1999.90;999.90;;;22.00;99.90;;;;;;5071827;28;20415;-72
2023/08/18 02:00:34;;;;;;;1999.90;999.90;;;22.00;99.90;;;;;;5073580;28;20025;-73
2023/08/18 02:03:00;;;;;;;1999.90;999.90;;;22.00;99.90;;;;;;5073096;28;20044;-72
2023/08/18 02:05:25;;;;;;;1999.90;999.90;;;22.00;99.90;;;;;;5072177;28;20036;-73
2023/08/18 02:07:51;;;;;;;1999.90;999.90;;;22.00;99.90;;;;;;5073022;28;20527;-72
2023/08/18 02:10:18;;;;;;;1999.90;999.90;;;22.00;99.90;;;;;;5075366;28;20154;-73
2023/08/18 02:12:43;;;;;;;1999.90;999.90;;;22.00;99.90;;;;;;5081331;28;20017;-72
2023/08/18 02:15:09;;;;;;;1999.90;999.90;;;22.00;99.90;;;;;;5071698;28;20039;-72
2023/08/18 02:17:35;;;;;;;1999.90;999.90;;;22.00;99.90;;;;;;5071966;28;20028;-72
2023/08/18 02:20:00;;;;;;;1999.90;999.90;;;22.10;99.90;;;;;;5072989;28;20456;-72
2023/08/18 02:22:26;;;;;;;1999.90;999.90;;;22.10;99.90;;;;;;5074814;28;20105;-72
2023/08/18 02:24:53;;;;;;;1999.90;999.90;;;22.10;99.90;;;;;;5080175;28;20368;-72
2023/08/18 02:27:19;;;;;;;1999.90;999.90;;;22.00;99.90;;;;;;5093230;28;20016;-72
2023/08/18 02:29:44;;;;;;;1999.90;999.90;;;22.10;99.90;;;;;;5093351;28;20555;-72
2023/08/18 02:32:10;;;;;;;1999.90;999.90;;;22.10;99.90;;;;;;5091926;28;20024;-72
2023/08/18 02:34:35;;;;;;;1999.90;999.90;;;22.00;99.90;;;;;;5093297;28;20082;-72
2023/08/18 02:37:01;;;;;;;1999.90;999.90;;;22.00;99.90;;;;;;5093003;28;20020;-72
2023/08/18 02:39:27;;;;;;;1999.90;999.90;;;22.10;99.90;;;;;;5093001;28;20390;-72
2023/08/18 02:41:54;;;;;;;1999.90;999.90;;;22.10;99.90;;;;;;5093354;28;20024;-72
2023/08/18 02:44:20;;;;;;;1999.90;999.90;;;22.10;99.90;;;;;;5093080;28;20029;-72
2023/08/18 02:46:47;;;;;;;1999.90;999.90;;;22.10;99.90;;;;;;5092897;28;20024;-72
2023/08/18 02:49:13;;;;;;;1999.90;999.90;;;22.10;99.90;;;;;;5093241;28;20024;-73
2023/08/18 02:51:38;;;;;;;1999.90;999.90;;;22.10;99.90;;;;;;5092966;28;20051;-72
2023/08/18 02:54:04;;;;;;;1999.90;999.90;;;22.10;99.90;;;;;;5091714;28;20024;-72
2023/08/18 02:56:31;;;;;;;1999.90;999.90;;;22.10;99.90;;;;;;5093057;28;20137;-72
2023/08/18 02:58:57;;;;;;;1999.90;999.90;;;22.10;99.90;;;;;;5092970;28;20017;-72
2023/08/18 03:01:23;;;;;;;1999.90;999.90;;;22.10;99.90;;;;;;5093135;28;20024;-72
2023/08/18 03:03:49;;;;;;;1999.90;999.90;;;22.10;99.90;;;;;;5092818;28;20068;-72
2023/08/18 03:06:14;;;;;;;1999.90;999.90;;;22.10;99.90;;;;;;5087017;28;20487;-72
2023/08/18 03:08:40;;;;;;;1999.90;999.90;;;22.10;99.90;;;;;;5076524;28;20025;-72
2023/08/18 03:11:06;;;;;;;1999.90;999.90;;;22.10;99.90;;;;;;5085503;28;20395;-72
2023/08/18 03:13:31;;;;;;;1999.90;999.90;;;22.10;99.90;;;;;;5078211;28;20107;-71
2023/08/18 03:15:57;;;;;;;1999.90;999.90;;;22.10;99.90;;;;;;5075986;28;20021;-71
2023/08/18 03:18:23;;;;;;;1999.90;999.90;;;22.10;99.90;;;;;;5076183;28;20024;-70
2023/08/18 03:20:50;;;;;;;1999.90;999.90;;;22.10;99.90;;;;;;5075820;28;20526;-70
2023/08/18 03:23:18;;;;;;;1999.90;999.90;;;22.00;99.90;;;;;;5082201;28;20032;-70
2023/08/18 03:25:44;;;;;;;1999.90;999.90;;;22.10;99.90;;;;;;5079789;28;20055;-70
2023/08/18 03:28:10;;;;;;;1999.90;999.90;;;22.10;99.90;;;;;;5096670;28;20056;-70
2023/08/18 03:30:40;;;;;;;1999.90;999.90;;;22.10;99.90;;;;;;5096530;28;20588;-70
2023/08/18 03:33:06;;;;;;;1999.90;999.90;;;22.10;99.90;;;;;;5095007;28;20028;-70
2023/08/18 03:35:35;;;;;;;1999.90;999.90;;;22.00;99.90;;;;;;5096280;28;20034;-70
2023/08/18 03:38:01;;;;;;;1999.90;999.90;;;22.00;99.90;;;;;;5096631;28;20027;-70
2023/08/18 03:40:27;;;;;;;1999.90;999.90;;;22.00;99.90;;;;;;5096504;28;20118;-70
2023/08/18 03:42:52;;;;;;;1999.90;999.90;;;21.90;99.90;;;;;;5096533;28;20458;-70
2023/08/18 03:45:18;;;;;;;1999.90;999.90;;;22.00;99.90;;;;;;5095987;28;20016;-70
2023/08/18 03:47:45;;;;;;;1999.90;999.90;;;21.90;99.90;;;;;;5096284;28;20032;-71
2023/08/18 03:50:11;;;;;;;1999.90;999.90;;;21.90;99.90;;;;;;5096147;28;20157;-70
2023/08/18 03:52:37;;;;;;;1999.90;999.90;;;21.90;99.90;;;;;;5095102;28;20028;-70
2023/08/18 03:55:04;;;;;;;1999.90;999.90;;;21.90;99.90;;;;;;5096213;28;20089;-70
2023/08/18 03:57:30;;;;;;;1999.90;999.90;;;21.90;99.90;;;;;;5094782;28;20067;-71
2023/08/18 03:59:55;;;;;;;1999.90;999.90;;;21.90;99.90;;;;;;5095790;28;20483;-71
2023/08/18 04:02:22;;;;;;;1999.90;999.90;;;21.90;99.90;;;;;;5095957;28;20082;-70
2023/08/18 04:04:48;;;;;;;1999.90;999.90;;;21.90;99.90;;;;;;5096320;28;20085;-70
2023/08/18 04:07:14;;;;;;;1999.90;999.90;;;21.90;99.90;;;;;;5081061;28;20021;-70
2023/08/18 04:09:39;;;;;;;1999.90;999.90;;;21.90;99.90;;;;;;5077481;28;20077;-70
2023/08/18 04:12:05;;;;;;;1999.90;999.90;;;21.90;99.90;;;;;;5095121;28;20028;-70
2023/08/18 04:14:31;;;;;;;1999.90;999.90;;;21.90;99.90;;;;;;5076610;28;20056;-70
2023/08/18 04:16:57;;;;;;;1999.90;999.90;;;21.80;99.90;;;;;;5074683;28;20081;-70
2023/08/18 04:19:22;;;;;;;1999.90;999.90;;;21.80;99.90;;;;;;5073294;28;20028;-70
2023/08/18 04:21:48;;;;;;;1999.90;999.90;;;21.90;99.90;;;;;;5075011;28;20025;-70
2023/08/18 04:24:13;;;;;;;1999.90;999.90;;;21.80;99.90;;;;;;5081418;28;20158;-70
2023/08/18 04:26:40;;;;;;;1999.90;999.90;;;21.90;99.90;;;;;;5093237;28;20024;-70
2023/08/18 04:29:06;;;;;;;1999.90;999.90;;;21.90;99.90;;;;;;5095328;28;20035;-70
2023/08/18 04:31:31;;;;;;;1999.90;999.90;;;21.80;99.90;;;;;;5095386;28;20020;-70
2023/08/18 04:33:57;;;;;;;1999.90;999.90;;;21.80;99.90;;;;;;5095273;28;20487;-71
2023/08/18 04:36:23;;;;;;;1999.90;999.90;;;21.80;99.90;;;;;;5094970;28;20059;-70
2023/08/18 04:38:49;;;;;;;1999.90;999.90;;;21.80;99.90;;;;;;5095328;28;20414;-70
2023/08/18 04:41:14;;;;;;;1999.90;999.90;;;21.80;99.90;;;;;;5095131;28;20073;-70
2023/08/18 04:43:40;;;;;;;1999.90;999.90;;;21.80;99.90;;;;;;5095163;28;20433;-70
2023/08/18 04:46:06;;;;;;;1999.90;999.90;;;21.80;99.90;;;;;;5094921;28;20035;-70
2023/08/18 04:48:32;;;;;;;1999.90;999.90;;;21.80;99.90;;;;;;5088243;28;20123;-70
2023/08/18 04:50:58;;;;;;;1999.90;999.90;;;21.80;99.90;;;;;;5074578;28;20115;-70
2023/08/18 04:53:24;;;;;;;1999.90;999.90;;;21.70;99.90;;;;;;5074868;28;20056;-70
2023/08/18 04:55:50;;;;;;;1999.90;999.90;;;21.70;99.90;;;;;;5074800;28;20025;-70
2023/08/18 04:58:15;;;;;;;1999.90;999.90;;;21.80;99.90;;;;;;5074943;28;20029;-71
2023/08/18 05:00:42;;;;;;;1999.90;999.90;;;21.70;99.90;;;;;;5085843;28;20016;-70
2023/08/18 05:03:07;;;;;;;1999.90;999.90;;;21.70;99.90;;;;;;5094165;28;20087;-70
2023/08/18 05:05:56;;;;;;;1999.90;999.90;;;21.70;99.90;;;;;;5089450;28;20063;-70
2023/08/18 05:08:22;;;;;;;1999.90;999.90;;;21.70;99.90;;;;;;5072173;28;20029;-70
2023/08/18 05:10:47;;;;;;;1999.90;999.90;;;21.70;99.90;;;;;;5077601;28;20115;-71
2023/08/18 05:13:13;;;;;;;1999.90;999.90;;;21.70;99.90;;;;;;5073933;28;20494;-70
2023/08/18 05:15:39;;;;;;;1999.90;999.90;;;21.70;99.90;;;;;;5074062;28;20032;-70
2023/08/18 05:18:04;;;;;;;1999.90;999.90;;;21.70;99.90;;;;;;5074004;28;20063;-70
2023/08/18 05:20:30;;;;;;;1999.90;999.90;;;21.70;99.90;;;;;;5072656;28;20027;-70
2023/08/18 05:22:56;;;;;;;1999.90;999.90;;;21.70;99.90;;;;;;5077285;28;20033;-70
2023/08/18 05:25:22;;;;;;;1999.90;999.90;;;21.70;99.90;;;;;;5079740;28;20020;-71
2023/08/18 05:27:47;;;;;;;1999.90;999.90;;;21.60;99.90;;;;;;5085105;28;20054;-70
2023/08/18 05:30:13;;;;;;;1999.90;999.90;;;21.60;99.90;;;;;;5092420;28;20027;-70
2023/08/18 05:32:39;;;;;;;1999.90;999.90;;;21.60;99.90;;;;;;5094159;28;20027;-70
2023/08/18 05:35:05;;;;;;;1999.90;999.90;;;21.60;99.90;;;;;;5090154;28;20024;-70
2023/08/18 05:37:31;;;;;;;1999.90;999.90;;;21.60;99.90;;;;;;5080711;28;20390;-70
2023/08/18 05:39:56;;;;;;;1999.90;999.90;;;21.70;99.90;;;;;;5094186;28;20024;-70
2023/08/18 05:42:22;;;;;;;1999.90;999.90;;;21.70;99.90;;;;;;5094141;28;20099;-70
2023/08/18 05:44:48;;;;;;;1999.90;999.90;;;21.70;99.90;;;;;;5081057;28;20465;-70
2023/08/18 05:47:13;;;;;;;1999.90;999.90;;;21.70;99.90;;;;;;5060362;28;20056;-70
2023/08/18 05:49:39;;;;;;;1999.90;999.90;;;21.80;99.90;;;;;;5096499;28;20072;-70
2023/08/18 05:52:04;;;;;;;1999.90;999.90;;;21.80;99.90;;;;;;5080068;28;20032;-70
2023/08/18 05:54:30;;;;;;;1999.90;999.90;;;21.70;99.90;;;;;;5083188;28;20032;-70
2023/08/18 05:56:55;;;;;;;1999.90;999.90;;;21.80;99.90;;;;;;5072810;28;20123;-70
2023/08/18 05:59:21;;;;;;;1999.90;999.90;;;21.90;99.90;;;;;;5070900;28;20086;-71
2023/08/18 06:01:47;;;;;;;1999.90;999.90;;;21.90;99.90;;;;;;5077633;28;20100;-70
2023/08/18 06:04:12;;;;;;;1999.90;999.90;;;21.90;99.90;;;;;;5078262;28;20031;-70
2023/08/18 06:06:38;;;;;;;1999.90;999.90;;;21.90;99.90;;;;;;5069317;28;20017;-70
2023/08/18 06:09:05;;;;;;;1999.90;999.90;;;21.90;99.90;;;;;;5056579;28;20102;-70
2023/08/18 06:11:30;;;;;;;1999.90;999.90;;;21.90;99.90;;;;;;5079181;28;20036;-70
2023/08/18 06:13:56;;;;;;;1999.90;999.90;;;21.90;99.90;;;;;;5083985;28;20558;-70
2023/08/18 06:16:21;;;;;;;1999.90;999.90;;;21.80;99.90;;;;;;5071381;28;20763;-71
2023/08/18 06:18:47;;;;;;;1999.90;999.90;;;21.80;99.90;;;;;;5067327;28;20051;-70
2023/08/18 06:21:12;;;;;;;1999.90;999.90;;;21.80;99.90;;;;;;5070815;28;20016;-70
2023/08/18 06:23:38;;;;;;;1999.90;999.90;;;21.80;99.90;;;;;;5082051;28;20013;-71
2023/08/18 06:26:04;;;;;;;1999.90;999.90;;;21.90;99.90;;;;;;5085494;28;20032;-71
2023/08/18 06:28:29;;;;;;;1999.90;999.90;;;21.90;99.90;;;;;;5073846;28;20032;-70
2023/08/18 06:31:05;;;;;;;1999.90;999.90;;;21.80;99.90;;;;;;5071355;28;20111;-70
2023/08/18 06:33:31;;;;;;;1999.90;999.90;;;21.90;99.90;;;;;;5071079;28;20040;-70
2023/08/18 06:35:57;;;;;;;1999.90;999.90;;;21.90;99.90;;;;;;5075861;28;20028;-70
2023/08/18 06:38:23;;;;;;;1999.90;999.90;;;21.90;99.90;;;;;;5073063;28;20070;-70
2023/08/18 06:40:48;;;;;;;1999.90;999.90;;;21.90;99.90;;;;;;5070339;28;20055;-70
2023/08/18 06:43:14;;;;;;;1999.90;999.90;;;21.90;99.90;;;;;;5071404;28;20025;-71
2023/08/18 06:45:39;;;;;;;1999.90;999.90;;;22.00;99.90;;;;;;5071383;28;20036;-71
2023/08/18 06:48:05;;;;;;;1999.90;999.90;;;22.00;99.90;;;;;;5070902;28;20473;-71
2023/08/18 06:50:31;;;;;;;1999.90;999.90;;;22.00;99.90;;;;;;5082993;28;20032;-71
2023/08/18 06:52:56;;;;;;;1999.90;999.90;;;22.00;99.90;;;;;;5087988;28;20035;-71
2023/08/18 06:55:22;;;;;;;1999.90;999.90;;;22.00;99.90;;;;;;5077354;28;20064;-70
2023/08/18 06:57:48;;;;;;;1999.90;999.90;;;22.10;99.90;;;;;;5070611;28;20059;-70
2023/08/18 07:00:15;;;;;;;1999.90;999.90;;;22.10;99.90;;;;;;5066835;28;20507;-70
2023/08/18 07:02:40;;;;;;;1999.90;999.90;;;22.10;99.90;;;;;;5076514;28;20064;-70
2023/08/18 07:05:06;;;;;;;1999.90;999.90;;;22.20;99.90;;;;;;5073082;28;20091;-71
2023/08/18 07:07:34;;;;;;;1999.90;999.90;;;22.20;99.90;;;;;;5068157;28;20099;-71
2023/08/18 07:09:59;;;;;;;1999.90;999.90;;;22.20;99.90;;;;;;5069192;28;20093;-71
2023/08/18 07:12:25;;;;;;;1999.90;999.90;;;22.20;99.90;;;;;;5070792;28;20021;-70
2023/08/18 07:14:50;;;;;;;1999.90;999.90;;;22.20;99.90;;;;;;5073246;28;20013;-71
2023/08/18 07:17:17;;;;;;;1999.90;999.90;;;22.30;99.90;;;;;;5069202;28;20094;-70
2023/08/18 07:19:43;;;;;;;1999.90;999.90;;;22.50;99.90;;;;;;5068196;28;20024;-70
2023/08/18 07:22:09;;;;;;;1999.90;999.90;;;22.60;99.90;;;;;;5071666;28;20112;-70
2023/08/18 07:24:35;;;;;;;1999.90;999.90;;;22.60;99.90;;;;;;5072302;28;20024;-70
2023/08/18 07:27:01;;;;;;;1999.90;999.90;;;22.70;99.90;;;;;;5070389;28;20059;-73
2023/08/18 07:29:26;;;;;;;1999.90;999.90;;;22.70;99.90;;;;;;5068909;28;20028;-71
2023/08/18 07:31:52;;;;;;;1999.90;999.90;;;22.70;99.90;;;;;;5069424;28;20039;-71
2023/08/18 07:34:18;;;;;;;1999.90;999.90;;;22.70;99.90;;;;;;5072274;28;20035;-71
2023/08/18 07:36:43;;;;;;;1999.90;999.90;;;22.70;99.90;;;;;;5073558;28;20058;-71
2023/08/18 07:39:12;;;;;;;1999.90;999.90;;;22.80;99.90;;;;;;5068506;28;20029;-71
2023/08/18 07:41:43;;;;;;;1999.90;999.90;;;22.80;99.90;;;;;;5069241;28;20558;-71
2023/08/18 07:44:09;;;;;;;1999.90;999.90;;;22.90;99.90;;;;;;5069459;28;20497;-71
2023/08/18 07:46:35;;;;;;;1999.90;999.90;;;23.00;99.90;;;;;;5073955;28;20115;-71
2023/08/18 07:49:01;;;;;;;1999.90;999.90;;;23.00;99.90;;;;;;5070023;28;20136;-70
2023/08/18 07:51:27;;;;;;;1999.90;999.90;;;23.00;99.90;;;;;;5067539;28;20036;-71
2023/08/18 07:53:53;;;;;;;1999.90;999.90;;;23.10;99.90;;;;;;5072892;28;20104;-71
2023/08/18 07:56:19;;;;;;;1999.90;999.90;;;23.30;99.90;;;;;;5075276;28;20115;-71
2023/08/18 07:58:44;;;;;;;1999.90;999.90;;;23.50;99.90;;;;;;5074205;28;20025;-70
2023/08/18 08:01:10;;;;;;;1999.90;999.90;;;23.70;99.90;;;;;;5079599;28;20040;-71
2023/08/18 08:03:36;;;;;;;1999.90;999.90;;;24.00;99.90;;;;;;5080003;28;20092;-71
2023/08/18 08:06:04;;;;;;;1999.90;999.90;;;24.00;99.90;;;;;;5073572;28;20033;-71
2023/08/18 08:08:30;;;;;;;1999.90;999.90;;;24.20;99.90;;;;;;5073678;28;20135;-71
2023/08/18 08:10:57;;;;;;;1999.90;999.90;;;24.60;99.90;;;;;;5086939;28;20059;-71
2023/08/18 08:13:23;;;;;;;1999.90;999.90;;;25.00;99.90;;;;;;5073863;28;20661;-71
2023/08/18 08:15:48;;;;;;;1999.90;999.90;;;26.90;99.90;;;;;;5077778;28;20170;-72
2023/08/18 08:18:15;;;;;;;1999.90;999.90;;;28.80;99.90;;;;;;5076186;28;20035;-72
2023/08/18 08:20:42;;;;;;;1999.90;999.90;;;28.90;99.90;;;;;;5073945;28;20025;-71
2023/08/18 08:23:08;;;;;;;1999.90;999.90;;;29.20;99.90;;;;;;5075383;28;20028;-71
2023/08/18 08:25:34;;;;;;;1999.90;999.90;;;29.40;99.90;;;;;;5082802;28;20025;-72
2023/08/18 08:28:01;;;;;;;1999.90;999.90;;;29.80;99.90;;;;;;5073014;28;20066;-72
2023/08/18 08:30:28;;;;;;;1999.90;999.90;;;31.40;99.90;;;;;;5073764;28;20020;-72
2023/08/18 08:32:54;;;;;;;1999.90;999.90;;;32.00;99.90;;;;;;5078376;28;20034;-72
2023/08/18 08:35:20;;;;;;;1999.90;999.90;;;31.10;99.90;;;;;;5071441;28;20111;-72
2023/08/18 08:37:46;;;;;;;1999.90;999.90;;;30.90;99.90;;;;;;5066351;28;20020;-72
2023/08/18 08:40:17;;;;;;;1999.90;999.90;;;31.40;99.90;;;;;;5076141;28;20043;-71
2023/08/18 08:42:43;;;;;;;1999.90;999.90;;;32.30;99.90;;;;;;5082806;28;20043;-71
2023/08/18 08:45:09;;;;;;;1999.90;999.90;;;33.00;99.90;;;;;;5081562;28;20482;-71
2023/08/18 08:47:35;;;;;;;1999.90;999.90;;;33.30;99.90;;;;;;5080104;28;20020;-72
2023/08/18 08:50:02;;;;;;;1999.90;999.90;;;32.70;99.90;;;;;;5082535;28;20032;-74
2023/08/18 08:52:35;;;;;;;1999.90;999.90;;;31.60;99.90;;;;;;5085060;28;20035;-73
2023/08/18 08:55:02;;;;;;;;;;;31.10;99.90;;;;;;5074913;28;20043;-74
2023/08/18 08:57:28;;;;;;;1999.90;999.90;;;31.30;99.90;;;;;;5078701;28;19916;-74
2023/08/18 08:59:54;;;;;;;1999.90;999.90;;;31.30;99.90;;;;;;5073607;28;20032;-74
2023/08/18 09:02:20;;;;;;;1999.90;999.90;;;31.00;99.90;;;;;;5076462;28;20048;-74
2023/08/18 09:04:46;;;;;;;1999.90;999.90;;;30.70;99.90;;;;;;5071178;28;20534;-75
2023/08/18 09:07:12;;;;;;;1999.90;999.90;;;30.40;99.90;;;;;;5074151;28;20024;-74
2023/08/18 09:09:39;;;;;;;1999.90;999.90;;;30.60;99.90;;;;;;5078084;28;20024;-75
2023/08/18 09:12:07;;;;;;;1999.90;999.90;;;31.00;99.90;;;;;;5080384;28;20491;-74
2023/08/18 09:14:39;;;;;;;1999.90;999.90;;;31.50;99.90;;;;;;5080959;28;20012;-73
2023/08/18 09:17:05;;;;;;;1999.90;999.90;;;31.10;99.90;;;;;;5071853;28;20070;-74
2023/08/18 09:19:31;;;;;;;1999.90;999.90;;;31.70;99.90;;;;;;5075802;28;20194;-75
2023/08/18 09:21:59;;;;;;;1999.90;999.90;;;32.50;99.90;;;;;;5080492;28;20034;-75
2023/08/18 09:24:25;;;;;;;1999.90;999.90;;;32.80;99.90;;;;;;5080694;28;20447;-75
2023/08/18 09:26:51;;;;;;;1999.90;999.90;;;32.90;99.90;;;;;;5072931;28;20136;-75
2023/08/18 09:29:16;;;;;;;1999.90;999.90;;;32.30;99.90;;;;;;5071336;28;20112;-75
2023/08/18 09:31:45;;;;;;;1999.90;999.90;;;33.30;99.90;;;;;;5070467;28;20040;-74
2023/08/18 09:34:21;;;;;;;1999.90;999.90;;;32.90;99.90;;;;;;5074277;28;20564;-75
2023/08/18 09:36:56;;;;;;;1999.90;999.90;;;33.50;99.90;;;;;;5069444;28;20125;-75
2023/08/18 09:39:25;;;;;;;1999.90;999.90;;;33.70;99.90;;;;;;5070625;28;20391;-75
2023/08/18 09:41:52;;;;;;;1999.90;999.90;;;32.90;99.90;;;;;;5067198;28;20028;-75
2023/08/18 09:44:19;;;;;;;1999.90;999.90;;;32.00;99.90;;;;;;5070579;28;20021;-75
2023/08/18 09:46:51;;;;;;;1999.90;999.90;;;31.90;99.90;;;;;;5069578;28;20854;-74
2023/08/18 09:49:18;;;;;;;;;;;31.50;99.90;;;;;;5074158;28;20055;-74
2023/08/18 09:51:46;;;;;;;1999.90;999.90;;;31.70;99.90;;;;;;5070293;28;19923;-75
2023/08/18 09:54:13;;;;;;;1999.90;999.90;;;32.10;99.90;;;;;;5064960;28;20031;-74
2023/08/18 09:56:39;;;;;;;1999.90;999.90;;;31.70;99.90;;;;;;5073061;28;20069;-75
2023/08/18 09:59:42;;;;;;;1999.90;999.90;;;32.90;99.90;;;;;;5065708;28;20032;-75
2023/08/18 10:02:12;;;;;;;1999.90;999.90;;;33.90;99.90;;;;;;5069825;28;20066;-75
2023/08/18 10:04:41;;;;;;;1999.90;999.90;;;34.70;99.90;;;;;;5068726;28;20063;-75
2023/08/18 10:07:07;;;;;;;1999.90;999.90;;;34.00;99.90;;;;;;5068070;28;20078;-75
2023/08/18 10:09:34;;;;;;;1999.90;999.90;;;33.70;99.90;;;;;;5070281;28;20418;-77
2023/08/18 10:12:04;;;;;;;1999.90;999.90;;;34.20;99.90;;;;;;5069030;28;20054;-75
2023/08/18 10:14:31;;;;;;;1999.90;999.90;;;35.20;99.90;;;;;;5075835;28;20032;-76
2023/08/18 10:16:59;;;;;;;1999.90;999.90;;;35.50;99.90;;;;;;5068321;28;20028;-76
2023/08/18 10:19:47;;;;;;;1999.90;999.90;;;36.10;99.90;;;;;;5073940;28;20395;-77
2023/08/18 10:22:14;;;;;;;1999.90;999.90;;;35.70;99.90;;;;;;5072063;28;20106;-76
2023/08/18 10:24:40;;;;;;;1999.90;999.90;;;35.90;99.90;;;;;;5071986;28;20386;-75
2023/08/18 10:27:10;;;;;;;1999.90;999.90;;;35.90;99.90;;;;;;5068911;28;20120;-75
2023/08/18 10:29:36;;;;;;;1999.90;999.90;;;35.70;99.90;;;;;;5069508;28;20012;-75
2023/08/18 10:32:08;;;;;;;1999.90;999.90;;;35.00;99.90;;;;;;5069183;28;20029;-75
2023/08/18 10:34:36;;;;;;;1999.90;999.90;;;34.80;99.90;;;;;;5069189;28;20114;-77
2023/08/18 10:37:03;;;;;;;1999.90;999.90;;;34.20;99.90;;;;;;5063912;28;20028;-77
2023/08/18 10:39:36;;;;;;;1999.90;999.90;;;33.00;99.90;;;;;;5067560;28;20074;-75
2023/08/18 10:42:14;;;;;;;1999.90;999.90;;;33.00;99.90;;;;;;5071135;28;20458;-73
2023/08/18 10:44:57;;;;;;;1999.90;999.90;;;32.30;99.90;;;;;;5072295;28;20020;-75
2023/08/18 10:47:34;;;;;;;1999.90;999.90;;;32.30;99.90;;;;;;5069506;28;20039;-75
2023/08/18 10:50:00;;;;;;;1999.90;999.90;;;32.50;99.90;;;;;;5066472;28;20029;-75
2023/08/18 10:52:28;;;;;;;1999.90;999.90;;;33.10;99.90;;;;;;5070427;28;20056;-74
2023/08/18 10:54:54;;;;;;;1999.90;999.90;;;32.50;99.90;;;;;;5073926;28;20509;-75
2023/08/18 10:57:20;;;;;;;1999.90;999.90;;;32.10;99.90;;;;;;5068849;28;20028;-75
2023/08/18 10:59:45;;;;;;;1999.90;999.90;;;32.20;99.90;;;;;;5070569;28;20032;-75
2023/08/18 11:02:12;;;;;;;1999.90;999.90;;;32.80;99.90;;;;;;5069798;28;20125;-75
2023/08/18 11:04:37;;;;;;;1999.90;999.90;;;32.60;99.90;;;;;;5065745;28;20479;-74
2023/08/18 11:07:04;;;;;;;1999.90;999.90;;;32.20;99.90;;;;;;5066986;28;20032;-75
2023/08/18 11:09:34;;;;;;;1999.90;999.90;;;31.30;99.90;;;;;;5069576;28;20077;-74
2023/08/18 11:11:59;;;;;;;1999.90;999.90;;;31.40;99.90;;;;;;5073449;28;20043;-75
2023/08/18 11:14:25;;;;;;;1999.90;999.90;;;31.70;99.90;;;;;;5072913;28;20032;-76
2023/08/18 11:16:50;;;;;;;1999.90;999.90;;;32.40;99.90;;;;;;5072348;28;20024;-75
2023/08/18 11:19:16;;;;;;;1999.90;999.90;;;32.40;99.90;;;;;;5078483;28;20073;-74
2023/08/18 11:21:42;;;;;;;1999.90;999.90;;;33.10;99.90;;;;;;5087428;28;20028;-75
2023/08/18 11:24:08;;;;;;;1999.90;999.90;;;33.00;99.90;;;;;;5072934;28;20039;-74
2023/08/18 11:26:39;;;;;;;1999.90;999.90;;;33.40;99.90;;;;;;5087790;28;20032;-76
2023/08/18 11:29:06;;;;;;;1999.90;999.90;;;33.60;99.90;;;;;;5094595;28;20037;-75
2023/08/18 11:31:32;;;;;;;1999.90;999.90;;;34.20;99.90;;;;;;5082478;28;20110;-74
2023/08/18 11:33:58;;;;;;;1999.90;999.90;;;34.10;99.90;;;;;;5077309;28;20149;-74
2023/08/18 11:36:31;;;;;;;1999.90;999.90;;;33.80;99.90;;;;;;5074635;28;20089;-75
2023/08/18 11:39:09;;;;;;;1999.90;999.90;;;33.50;99.90;;;;;;5075296;28;20416;-74
2023/08/18 11:41:43;;;;;;;1999.90;999.90;;;33.70;99.90;;;;;;5071133;28;20033;-74
2023/08/18 11:44:09;;;;;;;1999.90;999.90;;;32.90;99.90;;;;;;5072832;28;20113;-73
2023/08/18 11:46:39;;;;;;;1999.90;999.90;;;32.80;99.90;;;;;;5072536;28;20028;-73
2023/08/18 11:49:18;;;;;;;1999.90;999.90;;;32.70;99.90;;;;;;5076441;28;20107;-73
2023/08/18 11:52:05;;;;;;;1999.90;999.90;;;32.50;99.90;;;;;;5075923;28;20032;-75
2023/08/18 11:54:35;;;;;;;1999.90;999.90;;;32.30;99.90;;;;;;5072863;28;20383;-76
2023/08/18 11:57:02;;;;;;;1999.90;999.90;;;32.10;99.90;;;;;;5072884;28;20028;-74
2023/08/18 11:59:28;;;;;;;1999.90;999.90;;;31.70;99.90;;;;;;5074117;28;20047;-74
2023/08/18 12:02:01;;;;;;;1999.90;999.90;;;31.70;99.90;;;;;;5074121;28;20488;-75